sensor_id;sensor_type;location;lat;lon;timestamp;P1;durP1;ratioP1;P2;durP2;ratioP2
44189;SDS011;29856;52.144;5.430;2023-08-31T00:02:16;4.38;;;2.50;;
44189;SDS011;29856;52.144;5.430;2023-08-31T00:04:42;4.63;;;2.00;;
44189;SDS011;29856;52.144;5.430;2023-08-31T00:07:07;5.20;;;2.50;;
44189;SDS011;29856;52.144;5.430;2023-08-31T00:09:33;6.05;;;2.58;;
44189;SDS011;29856;52.144;5.430;2023-08-31T00:12:00;4.05;;;2.38;;
44189;SDS011;29856;52.144;5.430;2023-08-31T00:14:26;2.30;;;2.10;;
44189;SDS011;29856;52.144;5.430;2023-08-31T00:16:51;2.65;;;2.30;;
44189;SDS011;29856;52.144;5.430;2023-08-31T00:19:17;4.78;;;2.85;;
44189;SDS011;29856;52.144;5.430;2023-08-31T00:21:43;7.63;;;2.40;;
44189;SDS011;29856;52.144;5.430;2023-08-31T00:24:08;4.10;;;2.70;;
44189;SDS011;29856;52.144;5.430;2023-08-31T00:26:34;11.45;;;3.10;;
44189;SDS011;29856;52.144;5.430;2023-08-31T00:28:59;3.53;;;2.85;;
44189;SDS011;29856;52.144;5.430;2023-08-31T00:31:25;7.30;;;2.72;;
44189;SDS011;29856;52.144;5.430;2023-08-31T00:33:50;6.93;;;2.15;;
44189;SDS011;29856;52.144;5.430;2023-08-31T00:36:16;3.55;;;2.22;;
44189;SDS011;29856;52.144;5.430;2023-08-31T00:38:41;4.72;;;2.45;;
44189;SDS011;29856;52.144;5.430;2023-08-31T00:41:07;6.72;;;2.67;;
44189;SDS011;29856;52.144;5.430;2023-08-31T00:43:32;5.82;;;3.00;;
44189;SDS011;29856;52.144;5.430;2023-08-31T00:45:58;5.75;;;2.75;;
44189;SDS011;29856;52.144;5.430;2023-08-31T00:48:23;8.75;;;3.03;;
44189;SDS011;29856;52.144;5.430;2023-08-31T00:50:49;5.25;;;3.13;;
44189;SDS011;29856;52.144;5.430;2023-08-31T00:53:15;7.20;;;3.03;;
44189;SDS011;29856;52.144;5.430;2023-08-31T00:55:42;4.63;;;2.80;;
44189;SDS011;29856;52.144;5.430;2023-08-31T00:58:09;6.20;;;3.38;;
44189;SDS011;29856;52.144;5.430;2023-08-31T01:03:13;6.53;;;3.25;;
44189;SDS011;29856;52.144;5.430;2023-08-31T01:13:57;8.40;;;3.45;;
44189;SDS011;29856;52.144;5.430;2023-08-31T01:16:27;11.68;;;3.60;;
44189;SDS011;29856;52.144;5.430;2023-08-31T01:18:56;5.78;;;4.00;;
44189;SDS011;29856;52.144;5.430;2023-08-31T01:21:37;4.68;;;4.18;;
44189;SDS011;29856;52.144;5.430;2023-08-31T01:24:04;6.50;;;3.65;;
44189;SDS011;29856;52.144;5.430;2023-08-31T01:26:31;5.47;;;3.90;;
44189;SDS011;29856;52.144;5.430;2023-08-31T01:28:57;11.55;;;4.35;;
44189;SDS011;29856;52.144;5.430;2023-08-31T01:31:23;7.28;;;4.30;;
44189;SDS011;29856;52.144;5.430;2023-08-31T01:33:49;10.80;;;3.90;;
44189;SDS011;29856;52.144;5.430;2023-08-31T01:36:23;7.70;;;4.22;;
44189;SDS011;29856;52.144;5.430;2023-08-31T01:38:50;6.25;;;3.10;;
44189;SDS011;29856;52.144;5.430;2023-08-31T01:41:35;7.57;;;5.22;;
44189;SDS011;29856;52.144;5.430;2023-08-31T01:44:04;9.10;;;3.95;;
44189;SDS011;29856;52.144;5.430;2023-08-31T01:46:33;9.60;;;5.43;;
44189;SDS011;29856;52.144;5.430;2023-08-31T01:48:59;10.13;;;5.07;;
44189;SDS011;29856;52.144;5.430;2023-08-31T01:51:25;11.30;;;4.50;;
44189;SDS011;29856;52.144;5.430;2023-08-31T01:53:50;13.18;;;4.90;;
44189;SDS011;29856;52.144;5.430;2023-08-31T01:56:16;11.77;;;4.55;;
44189;SDS011;29856;52.144;5.430;2023-08-31T01:58:41;7.93;;;4.55;;
44189;SDS011;29856;52.144;5.430;2023-08-31T02:01:06;8.15;;;4.82;;
44189;SDS011;29856;52.144;5.430;2023-08-31T02:03:32;6.57;;;4.05;;
44189;SDS011;29856;52.144;5.430;2023-08-31T02:05:57;5.90;;;4.13;;
44189;SDS011;29856;52.144;5.430;2023-08-31T02:08:23;7.65;;;4.25;;
44189;SDS011;29856;52.144;5.430;2023-08-31T02:10:48;5.65;;;2.92;;
44189;SDS011;29856;52.144;5.430;2023-08-31T02:13:14;8.35;;;3.47;;
44189;SDS011;29856;52.144;5.430;2023-08-31T02:15:40;8.45;;;2.78;;
44189;SDS011;29856;52.144;5.430;2023-08-31T02:18:06;6.07;;;3.17;;
44189;SDS011;29856;52.144;5.430;2023-08-31T02:20:32;5.55;;;3.58;;
44189;SDS011;29856;52.144;5.430;2023-08-31T02:22:58;4.10;;;3.20;;
44189;SDS011;29856;52.144;5.430;2023-08-31T02:25:24;7.07;;;4.05;;
44189;SDS011;29856;52.144;5.430;2023-08-31T02:27:49;5.50;;;2.78;;
44189;SDS011;29856;52.144;5.430;2023-08-31T02:30:15;7.60;;;3.42;;
44189;SDS011;29856;52.144;5.430;2023-08-31T02:32:40;9.10;;;3.92;;
44189;SDS011;29856;52.144;5.430;2023-08-31T02:35:06;6.05;;;3.72;;
44189;SDS011;29856;52.144;5.430;2023-08-31T02:37:31;7.07;;;3.47;;
44189;SDS011;29856;52.144;5.430;2023-08-31T02:39:57;5.47;;;4.15;;
44189;SDS011;29856;52.144;5.430;2023-08-31T02:42:22;9.00;;;4.18;;
44189;SDS011;29856;52.144;5.430;2023-08-31T02:44:51;9.55;;;4.38;;
44189;SDS011;29856;52.144;5.430;2023-08-31T02:47:17;9.80;;;5.07;;
44189;SDS011;29856;52.144;5.430;2023-08-31T02:49:42;9.15;;;4.97;;
44189;SDS011;29856;52.144;5.430;2023-08-31T02:52:08;11.68;;;5.40;;
44189;SDS011;29856;52.144;5.430;2023-08-31T02:54:33;10.30;;;5.80;;
44189;SDS011;29856;52.144;5.430;2023-08-31T02:56:59;12.38;;;6.00;;
44189;SDS011;29856;52.144;5.430;2023-08-31T02:59:24;8.25;;;5.10;;
44189;SDS011;29856;52.144;5.430;2023-08-31T03:01:50;9.80;;;5.82;;
44189;SDS011;29856;52.144;5.430;2023-08-31T03:04:15;11.15;;;5.07;;
44189;SDS011;29856;52.144;5.430;2023-08-31T03:06:41;11.85;;;4.75;;
44189;SDS011;29856;52.144;5.430;2023-08-31T03:09:06;9.90;;;5.30;;
44189;SDS011;29856;52.144;5.430;2023-08-31T03:11:31;11.43;;;5.80;;
44189;SDS011;29856;52.144;5.430;2023-08-31T03:13:57;10.07;;;5.05;;
44189;SDS011;29856;52.144;5.430;2023-08-31T03:16:22;12.00;;;5.80;;
44189;SDS011;29856;52.144;5.430;2023-08-31T03:18:48;7.10;;;3.88;;
44189;SDS011;29856;52.144;5.430;2023-08-31T03:21:13;10.23;;;4.38;;
44189;SDS011;29856;52.144;5.430;2023-08-31T03:23:39;6.20;;;3.75;;
44189;SDS011;29856;52.144;5.430;2023-08-31T03:26:08;7.85;;;4.53;;
44189;SDS011;29856;52.144;5.430;2023-08-31T03:28:34;8.13;;;4.30;;
44189;SDS011;29856;52.144;5.430;2023-08-31T03:30:59;6.05;;;4.28;;
44189;SDS011;29856;52.144;5.430;2023-08-31T03:33:25;7.00;;;4.28;;
44189;SDS011;29856;52.144;5.430;2023-08-31T03:35:50;8.10;;;4.10;;
44189;SDS011;29856;52.144;5.430;2023-08-31T03:38:16;5.85;;;4.20;;
44189;SDS011;29856;52.144;5.430;2023-08-31T03:40:41;6.93;;;4.65;;
44189;SDS011;29856;52.144;5.430;2023-08-31T03:43:07;4.40;;;3.80;;
44189;SDS011;29856;52.144;5.430;2023-08-31T03:45:32;7.63;;;3.40;;
44189;SDS011;29856;52.144;5.430;2023-08-31T03:47:58;7.95;;;4.00;;
44189;SDS011;29856;52.144;5.430;2023-08-31T03:50:24;7.00;;;3.67;;
44189;SDS011;29856;52.144;5.430;2023-08-31T03:52:49;6.88;;;3.90;;
44189;SDS011;29856;52.144;5.430;2023-08-31T03:55:15;6.45;;;4.15;;
44189;SDS011;29856;52.144;5.430;2023-08-31T03:57:40;8.60;;;3.90;;
44189;SDS011;29856;52.144;5.430;2023-08-31T04:00:06;5.07;;;3.08;;
44189;SDS011;29856;52.144;5.430;2023-08-31T04:02:32;5.30;;;2.72;;
44189;SDS011;29856;52.144;5.430;2023-08-31T04:04:57;8.00;;;3.15;;
44189;SDS011;29856;52.144;5.430;2023-08-31T04:07:23;5.57;;;3.00;;
44189;SDS011;29856;52.144;5.430;2023-08-31T04:09:49;7.68;;;3.53;;
44189;SDS011;29856;52.144;5.430;2023-08-31T04:12:14;4.85;;;3.13;;
44189;SDS011;29856;52.144;5.430;2023-08-31T04:14:40;8.30;;;3.97;;
44189;SDS011;29856;52.144;5.430;2023-08-31T04:17:05;6.40;;;3.50;;
44189;SDS011;29856;52.144;5.430;2023-08-31T04:19:31;5.82;;;2.80;;
44189;SDS011;29856;52.144;5.430;2023-08-31T04:21:56;8.27;;;4.03;;
44189;SDS011;29856;52.144;5.430;2023-08-31T04:24:22;5.15;;;3.75;;
44189;SDS011;29856;52.144;5.430;2023-08-31T04:26:47;8.40;;;4.18;;
44189;SDS011;29856;52.144;5.430;2023-08-31T04:29:13;7.45;;;4.40;;
44189;SDS011;29856;52.144;5.430;2023-08-31T04:31:38;6.15;;;4.13;;
44189;SDS011;29856;52.144;5.430;2023-08-31T04:34:04;4.68;;;3.95;;
44189;SDS011;29856;52.144;5.430;2023-08-31T04:36:29;8.82;;;4.25;;
44189;SDS011;29856;52.144;5.430;2023-08-31T04:38:54;9.00;;;4.68;;
44189;SDS011;29856;52.144;5.430;2023-08-31T04:41:20;10.35;;;4.93;;
44189;SDS011;29856;52.144;5.430;2023-08-31T04:43:46;6.93;;;3.95;;
44189;SDS011;29856;52.144;5.430;2023-08-31T04:46:11;7.63;;;4.55;;
44189;SDS011;29856;52.144;5.430;2023-08-31T04:48:37;5.63;;;4.32;;
44189;SDS011;29856;52.144;5.430;2023-08-31T04:51:02;6.05;;;4.22;;
44189;SDS011;29856;52.144;5.430;2023-08-31T04:53:28;13.07;;;5.50;;
44189;SDS011;29856;52.144;5.430;2023-08-31T04:55:53;7.40;;;4.07;;
44189;SDS011;29856;52.144;5.430;2023-08-31T04:58:18;8.20;;;4.20;;
44189;SDS011;29856;52.144;5.430;2023-08-31T05:00:44;7.28;;;4.10;;
44189;SDS011;29856;52.144;5.430;2023-08-31T05:03:09;7.95;;;4.22;;
44189;SDS011;29856;52.144;5.430;2023-08-31T05:05:35;6.47;;;4.05;;
44189;SDS011;29856;52.144;5.430;2023-08-31T05:08:00;8.35;;;4.50;;
44189;SDS011;29856;52.144;5.430;2023-08-31T05:10:27;5.95;;;3.60;;
44189;SDS011;29856;52.144;5.430;2023-08-31T05:12:52;6.10;;;3.40;;
44189;SDS011;29856;52.144;5.430;2023-08-31T05:15:17;5.75;;;3.10;;
44189;SDS011;29856;52.144;5.430;2023-08-31T05:17:43;7.72;;;2.95;;
44189;SDS011;29856;52.144;5.430;2023-08-31T05:20:08;7.07;;;3.00;;
44189;SDS011;29856;52.144;5.430;2023-08-31T05:22:34;5.65;;;2.45;;
44189;SDS011;29856;52.144;5.430;2023-08-31T05:25:00;6.32;;;2.80;;
44189;SDS011;29856;52.144;5.430;2023-08-31T05:27:25;5.57;;;3.00;;
44189;SDS011;29856;52.144;5.430;2023-08-31T05:29:51;9.50;;;3.05;;
44189;SDS011;29856;52.144;5.430;2023-08-31T05:32:16;6.22;;;2.40;;
44189;SDS011;29856;52.144;5.430;2023-08-31T05:34:42;4.05;;;2.70;;
44189;SDS011;29856;52.144;5.430;2023-08-31T05:37:07;10.18;;;3.17;;
44189;SDS011;29856;52.144;5.430;2023-08-31T05:39:33;9.40;;;4.35;;
44189;SDS011;29856;52.144;5.430;2023-08-31T05:41:58;9.65;;;3.20;;
44189;SDS011;29856;52.144;5.430;2023-08-31T05:44:24;13.40;;;3.53;;
44189;SDS011;29856;52.144;5.430;2023-08-31T05:46:49;8.25;;;3.75;;
44189;SDS011;29856;52.144;5.430;2023-08-31T05:49:15;8.27;;;3.67;;
44189;SDS011;29856;52.144;5.430;2023-08-31T05:51:40;23.10;;;7.35;;
44189;SDS011;29856;52.144;5.430;2023-08-31T05:54:05;15.20;;;4.45;;
44189;SDS011;29856;52.144;5.430;2023-08-31T05:56:31;11.35;;;5.10;;
44189;SDS011;29856;52.144;5.430;2023-08-31T05:58:56;9.65;;;4.20;;
44189;SDS011;29856;52.144;5.430;2023-08-31T06:01:22;10.25;;;4.15;;
44189;SDS011;29856;52.144;5.430;2023-08-31T06:03:47;9.50;;;4.20;;
44189;SDS011;29856;52.144;5.430;2023-08-31T06:06:13;10.45;;;4.03;;
44189;SDS011;29856;52.144;5.430;2023-08-31T06:08:39;6.63;;;4.20;;
44189;SDS011;29856;52.144;5.430;2023-08-31T06:11:04;9.73;;;4.53;;
44189;SDS011;29856;52.144;5.430;2023-08-31T06:13:29;8.32;;;4.85;;
44189;SDS011;29856;52.144;5.430;2023-08-31T06:15:55;10.73;;;5.13;;
44189;SDS011;29856;52.144;5.430;2023-08-31T06:18:20;8.70;;;4.80;;
44189;SDS011;29856;52.144;5.430;2023-08-31T06:20:46;8.00;;;5.00;;
44189;SDS011;29856;52.144;5.430;2023-08-31T06:23:13;11.82;;;4.38;;
44189;SDS011;29856;52.144;5.430;2023-08-31T06:25:39;9.55;;;3.80;;
44189;SDS011;29856;52.144;5.430;2023-08-31T06:28:04;9.70;;;4.22;;
44189;SDS011;29856;52.144;5.430;2023-08-31T06:30:30;6.97;;;4.15;;
44189;SDS011;29856;52.144;5.430;2023-08-31T06:32:56;7.85;;;4.15;;
44189;SDS011;29856;52.144;5.430;2023-08-31T06:35:21;8.82;;;5.47;;
44189;SDS011;29856;52.144;5.430;2023-08-31T06:37:47;9.45;;;6.38;;
44189;SDS011;29856;52.144;5.430;2023-08-31T06:40:12;7.20;;;5.72;;
44189;SDS011;29856;52.144;5.430;2023-08-31T06:42:37;9.80;;;6.18;;
44189;SDS011;29856;52.144;5.430;2023-08-31T06:45:03;10.43;;;6.65;;
44189;SDS011;29856;52.144;5.430;2023-08-31T06:47:29;15.20;;;6.65;;
44189;SDS011;29856;52.144;5.430;2023-08-31T06:49:55;10.07;;;6.13;;
44189;SDS011;29856;52.144;5.430;2023-08-31T06:52:20;7.32;;;5.63;;
44189;SDS011;29856;52.144;5.430;2023-08-31T06:54:46;9.07;;;5.15;;
44189;SDS011;29856;52.144;5.430;2023-08-31T06:57:11;7.50;;;3.70;;
44189;SDS011;29856;52.144;5.430;2023-08-31T06:59:37;7.43;;;3.72;;
44189;SDS011;29856;52.144;5.430;2023-08-31T07:02:02;8.90;;;3.70;;
44189;SDS011;29856;52.144;5.430;2023-08-31T07:04:28;9.93;;;3.13;;
44189;SDS011;29856;52.144;5.430;2023-08-31T07:06:53;6.82;;;3.08;;
44189;SDS011;29856;52.144;5.430;2023-08-31T07:09:19;9.43;;;2.65;;
44189;SDS011;29856;52.144;5.430;2023-08-31T07:11:44;7.13;;;3.72;;
44189;SDS011;29856;52.144;5.430;2023-08-31T07:14:10;5.68;;;3.45;;
44189;SDS011;29856;52.144;5.430;2023-08-31T07:16:35;6.65;;;4.50;;
44189;SDS011;29856;52.144;5.430;2023-08-31T07:19:01;8.70;;;3.80;;
44189;SDS011;29856;52.144;5.430;2023-08-31T07:21:26;8.10;;;4.45;;
44189;SDS011;29856;52.144;5.430;2023-08-31T07:23:52;10.70;;;4.80;;
44189;SDS011;29856;52.144;5.430;2023-08-31T07:26:18;9.98;;;4.85;;
44189;SDS011;29856;52.144;5.430;2023-08-31T07:28:43;10.93;;;5.10;;
44189;SDS011;29856;52.144;5.430;2023-08-31T07:31:09;12.57;;;5.80;;
44189;SDS011;29856;52.144;5.430;2023-08-31T07:33:34;10.55;;;5.03;;
44189;SDS011;29856;52.144;5.430;2023-08-31T07:36:00;9.32;;;4.22;;
44189;SDS011;29856;52.144;5.430;2023-08-31T07:38:27;10.25;;;4.53;;
44189;SDS011;29856;52.144;5.430;2023-08-31T07:40:52;8.95;;;4.30;;
44189;SDS011;29856;52.144;5.430;2023-08-31T07:43:18;7.68;;;3.75;;
44189;SDS011;29856;52.144;5.430;2023-08-31T07:45:44;11.63;;;5.07;;
44189;SDS011;29856;52.144;5.430;2023-08-31T07:48:09;9.65;;;4.85;;
44189;SDS011;29856;52.144;5.430;2023-08-31T07:50:35;10.35;;;5.50;;
44189;SDS011;29856;52.144;5.430;2023-08-31T07:53:00;9.18;;;4.30;;
44189;SDS011;29856;52.144;5.430;2023-08-31T07:55:26;6.57;;;4.38;;
44189;SDS011;29856;52.144;5.430;2023-08-31T07:57:51;6.32;;;4.38;;
44189;SDS011;29856;52.144;5.430;2023-08-31T08:00:17;9.77;;;4.82;;
44189;SDS011;29856;52.144;5.430;2023-08-31T08:02:42;11.10;;;5.07;;
44189;SDS011;29856;52.144;5.430;2023-08-31T08:05:09;7.95;;;3.60;;
44189;SDS011;29856;52.144;5.430;2023-08-31T08:07:35;7.18;;;3.20;;
44189;SDS011;29856;52.144;5.430;2023-08-31T08:10:00;6.45;;;3.35;;
44189;SDS011;29856;52.144;5.430;2023-08-31T08:12:26;10.10;;;3.22;;
44189;SDS011;29856;52.144;5.430;2023-08-31T08:14:51;9.25;;;3.17;;
44189;SDS011;29856;52.144;5.430;2023-08-31T08:17:17;8.65;;;2.88;;
44189;SDS011;29856;52.144;5.430;2023-08-31T08:19:42;7.75;;;3.30;;
44189;SDS011;29856;52.144;5.430;2023-08-31T08:22:07;5.65;;;3.25;;
44189;SDS011;29856;52.144;5.430;2023-08-31T08:24:33;12.05;;;3.97;;
44189;SDS011;29856;52.144;5.430;2023-08-31T08:26:58;8.63;;;3.80;;
44189;SDS011;29856;52.144;5.430;2023-08-31T08:29:24;8.05;;;4.10;;
44189;SDS011;29856;52.144;5.430;2023-08-31T08:31:50;7.53;;;3.85;;
44189;SDS011;29856;52.144;5.430;2023-08-31T08:34:15;16.27;;;5.88;;
44189;SDS011;29856;52.144;5.430;2023-08-31T08:36:41;10.55;;;4.95;;
44189;SDS011;29856;52.144;5.430;2023-08-31T08:39:06;9.52;;;5.05;;
44189;SDS011;29856;52.144;5.430;2023-08-31T08:41:32;10.75;;;5.25;;
44189;SDS011;29856;52.144;5.430;2023-08-31T08:44:02;7.07;;;5.10;;
44189;SDS011;29856;52.144;5.430;2023-08-31T08:46:28;7.10;;;5.25;;
44189;SDS011;29856;52.144;5.430;2023-08-31T08:48:56;8.23;;;5.10;;
44189;SDS011;29856;52.144;5.430;2023-08-31T08:51:24;12.43;;;5.88;;
44189;SDS011;29856;52.144;5.430;2023-08-31T08:53:51;9.80;;;5.25;;
44189;SDS011;29856;52.144;5.430;2023-08-31T08:56:17;10.25;;;5.88;;
44189;SDS011;29856;52.144;5.430;2023-08-31T08:58:43;13.65;;;5.45;;
44189;SDS011;29856;52.144;5.430;2023-08-31T09:01:08;8.70;;;4.95;;
44189;SDS011;29856;52.144;5.430;2023-08-31T09:03:34;12.25;;;5.35;;
44189;SDS011;29856;52.144;5.430;2023-08-31T09:06:00;8.15;;;4.45;;
44189;SDS011;29856;52.144;5.430;2023-08-31T09:08:26;9.50;;;4.68;;
44189;SDS011;29856;52.144;5.430;2023-08-31T09:10:52;8.50;;;4.28;;
44189;SDS011;29856;52.144;5.430;2023-08-31T09:13:21;5.55;;;3.85;;
44189;SDS011;29856;52.144;5.430;2023-08-31T09:15:51;9.98;;;4.10;;
44189;SDS011;29856;52.144;5.430;2023-08-31T09:18:30;8.65;;;3.40;;
44189;SDS011;29856;52.144;5.430;2023-08-31T09:20:57;6.13;;;3.45;;
44189;SDS011;29856;52.144;5.430;2023-08-31T09:23:23;10.27;;;3.40;;
44189;SDS011;29856;52.144;5.430;2023-08-31T09:25:49;8.38;;;2.88;;
44189;SDS011;29856;52.144;5.430;2023-08-31T09:28:16;6.50;;;2.72;;
44189;SDS011;29856;52.144;5.430;2023-08-31T09:30:45;9.23;;;2.45;;
44189;SDS011;29856;52.144;5.430;2023-08-31T09:33:15;11.02;;;2.97;;
44189;SDS011;29856;52.144;5.430;2023-08-31T09:35:52;6.70;;;1.98;;
44189;SDS011;29856;52.144;5.430;2023-08-31T09:38:20;9.80;;;2.70;;
44189;SDS011;29856;52.144;5.430;2023-08-31T09:40:46;5.85;;;1.88;;
44189;SDS011;29856;52.144;5.430;2023-08-31T09:43:11;5.65;;;1.60;;
44189;SDS011;29856;52.144;5.430;2023-08-31T09:45:43;7.78;;;2.17;;
44189;SDS011;29856;52.144;5.430;2023-08-31T09:48:09;11.02;;;1.80;;
44189;SDS011;29856;52.144;5.430;2023-08-31T09:50:34;8.55;;;1.80;;
44189;SDS011;29856;52.144;5.430;2023-08-31T09:53:02;6.47;;;2.10;;
44189;SDS011;29856;52.144;5.430;2023-08-31T09:55:29;8.73;;;1.90;;
44189;SDS011;29856;52.144;5.430;2023-08-31T09:58:00;6.50;;;1.70;;
44189;SDS011;29856;52.144;5.430;2023-08-31T10:00:26;9.50;;;2.53;;
44189;SDS011;29856;52.144;5.430;2023-08-31T10:02:54;5.63;;;1.73;;
44189;SDS011;29856;52.144;5.430;2023-08-31T10:05:25;10.10;;;1.60;;
44189;SDS011;29856;52.144;5.430;2023-08-31T10:07:51;7.63;;;1.75;;
44189;SDS011;29856;52.144;5.430;2023-08-31T10:10:17;4.95;;;1.33;;
44189;SDS011;29856;52.144;5.430;2023-08-31T10:12:44;6.18;;;1.88;;
44189;SDS011;29856;52.144;5.430;2023-08-31T10:15:10;4.97;;;1.83;;
44189;SDS011;29856;52.144;5.430;2023-08-31T10:17:36;4.38;;;1.27;;
44189;SDS011;29856;52.144;5.430;2023-08-31T10:20:04;5.00;;;1.27;;
44189;SDS011;29856;52.144;5.430;2023-08-31T10:22:31;5.93;;;1.10;;
44189;SDS011;29856;52.144;5.430;2023-08-31T10:24:58;6.65;;;1.55;;
44189;SDS011;29856;52.144;5.430;2023-08-31T10:27:25;5.80;;;1.35;;
44189;SDS011;29856;52.144;5.430;2023-08-31T10:29:51;4.03;;;1.00;;
44189;SDS011;29856;52.144;5.430;2023-08-31T10:32:17;4.47;;;1.25;;
44189;SDS011;29856;52.144;5.430;2023-08-31T10:34:43;4.32;;;1.00;;
44189;SDS011;29856;52.144;5.430;2023-08-31T10:37:21;3.88;;;1.05;;
44189;SDS011;29856;52.144;5.430;2023-08-31T10:39:47;5.55;;;2.00;;
44189;SDS011;29856;52.144;5.430;2023-08-31T10:42:12;5.13;;;1.13;;
44189;SDS011;29856;52.144;5.430;2023-08-31T10:44:39;6.15;;;1.52;;
44189;SDS011;29856;52.144;5.430;2023-08-31T10:47:07;5.63;;;1.30;;
44189;SDS011;29856;52.144;5.430;2023-08-31T10:49:33;4.22;;;0.90;;
44189;SDS011;29856;52.144;5.430;2023-08-31T10:52:15;2.78;;;0.80;;
44189;SDS011;29856;52.144;5.430;2023-08-31T10:54:42;5.10;;;1.02;;
44189;SDS011;29856;52.144;5.430;2023-08-31T10:57:07;3.15;;;1.00;;
44189;SDS011;29856;52.144;5.430;2023-08-31T11:05:05;3.30;;;1.77;;
44189;SDS011;29856;52.144;5.430;2023-08-31T11:07:38;3.47;;;0.90;;
44189;SDS011;29856;52.144;5.430;2023-08-31T11:10:18;3.40;;;0.90;;
44189;SDS011;29856;52.144;5.430;2023-08-31T11:12:47;2.05;;;0.88;;
44189;SDS011;29856;52.144;5.430;2023-08-31T11:15:14;7.00;;;0.98;;
44189;SDS011;29856;52.144;5.430;2023-08-31T11:17:41;5.30;;;1.00;;
44189;SDS011;29856;52.144;5.430;2023-08-31T11:20:17;1.45;;;0.68;;
44189;SDS011;29856;52.144;5.430;2023-08-31T11:22:44;2.80;;;0.93;;
44189;SDS011;29856;52.144;5.430;2023-08-31T11:25:15;1.65;;;0.90;;
44189;SDS011;29856;52.144;5.430;2023-08-31T11:27:41;2.50;;;1.00;;
44189;SDS011;29856;52.144;5.430;2023-08-31T11:30:16;4.75;;;0.93;;
44189;SDS011;29856;52.144;5.430;2023-08-31T11:32:50;1.63;;;0.63;;
44189;SDS011;29856;52.144;5.430;2023-08-31T11:35:16;3.90;;;0.98;;
44189;SDS011;29856;52.144;5.430;2023-08-31T11:37:43;1.23;;;0.70;;
44189;SDS011;29856;52.144;5.430;2023-08-31T11:40:09;3.83;;;1.15;;
44189;SDS011;29856;52.144;5.430;2023-08-31T11:42:35;3.63;;;1.00;;
44189;SDS011;29856;52.144;5.430;2023-08-31T11:45:01;6.63;;;1.42;;
44189;SDS011;29856;52.144;5.430;2023-08-31T11:47:28;3.65;;;1.20;;
44189;SDS011;29856;52.144;5.430;2023-08-31T11:49:53;3.58;;;1.13;;
44189;SDS011;29856;52.144;5.430;2023-08-31T11:52:19;3.75;;;0.93;;
44189;SDS011;29856;52.144;5.430;2023-08-31T11:54:45;3.72;;;1.05;;
44189;SDS011;29856;52.144;5.430;2023-08-31T11:57:10;1.85;;;1.10;;
44189;SDS011;29856;52.144;5.430;2023-08-31T11:59:36;3.75;;;1.17;;
44189;SDS011;29856;52.144;5.430;2023-08-31T12:02:06;4.65;;;1.83;;
44189;SDS011;29856;52.144;5.430;2023-08-31T12:04:32;1.98;;;0.88;;
44189;SDS011;29856;52.144;5.430;2023-08-31T12:07:01;3.00;;;0.73;;
44189;SDS011;29856;52.144;5.430;2023-08-31T12:09:28;2.95;;;0.73;;
44189;SDS011;29856;52.144;5.430;2023-08-31T12:11:53;2.30;;;0.80;;
44189;SDS011;29856;52.144;5.430;2023-08-31T12:14:19;2.45;;;0.88;;
44189;SDS011;29856;52.144;5.430;2023-08-31T12:16:46;3.35;;;0.80;;
44189;SDS011;29856;52.144;5.430;2023-08-31T12:19:12;5.45;;;1.15;;
44189;SDS011;29856;52.144;5.430;2023-08-31T12:21:37;2.45;;;1.00;;
44189;SDS011;29856;52.144;5.430;2023-08-31T12:24:04;3.15;;;1.10;;
44189;SDS011;29856;52.144;5.430;2023-08-31T12:26:30;3.65;;;1.00;;
44189;SDS011;29856;52.144;5.430;2023-08-31T12:28:55;2.55;;;0.73;;
44189;SDS011;29856;52.144;5.430;2023-08-31T12:31:22;5.65;;;1.10;;
44189;SDS011;29856;52.144;5.430;2023-08-31T12:33:48;3.63;;;1.02;;
44189;SDS011;29856;52.144;5.430;2023-08-31T12:36:13;2.97;;;1.00;;
44189;SDS011;29856;52.144;5.430;2023-08-31T12:38:39;2.13;;;0.80;;
44189;SDS011;29856;52.144;5.430;2023-08-31T12:41:04;5.28;;;0.98;;
44189;SDS011;29856;52.144;5.430;2023-08-31T12:43:30;3.25;;;1.15;;
44189;SDS011;29856;52.144;5.430;2023-08-31T12:45:56;6.70;;;2.00;;
44189;SDS011;29856;52.144;5.430;2023-08-31T12:48:21;2.20;;;0.90;;
44189;SDS011;29856;52.144;5.430;2023-08-31T12:50:47;4.45;;;1.00;;
44189;SDS011;29856;52.144;5.430;2023-08-31T12:53:12;4.25;;;1.20;;
44189;SDS011;29856;52.144;5.430;2023-08-31T12:55:37;2.15;;;0.80;;
44189;SDS011;29856;52.144;5.430;2023-08-31T12:58:03;4.50;;;0.80;;
44189;SDS011;29856;52.144;5.430;2023-08-31T13:00:28;2.05;;;1.10;;
44189;SDS011;29856;52.144;5.430;2023-08-31T13:02:54;3.97;;;1.10;;
44189;SDS011;29856;52.144;5.430;2023-08-31T13:05:19;2.78;;;0.98;;
44189;SDS011;29856;52.144;5.430;2023-08-31T13:07:45;4.45;;;1.20;;
44189;SDS011;29856;52.144;5.430;2023-08-31T13:10:11;1.85;;;1.00;;
44189;SDS011;29856;52.144;5.430;2023-08-31T13:12:36;1.80;;;0.70;;
44189;SDS011;29856;52.144;5.430;2023-08-31T13:15:02;2.58;;;1.00;;
44189;SDS011;29856;52.144;5.430;2023-08-31T13:17:28;5.78;;;1.80;;
44189;SDS011;29856;52.144;5.430;2023-08-31T13:19:54;2.83;;;1.05;;
44189;SDS011;29856;52.144;5.430;2023-08-31T13:22:24;2.40;;;1.00;;
44189;SDS011;29856;52.144;5.430;2023-08-31T13:24:50;3.40;;;1.00;;
44189;SDS011;29856;52.144;5.430;2023-08-31T13:27:16;3.05;;;1.00;;
44189;SDS011;29856;52.144;5.430;2023-08-31T13:29:42;2.45;;;0.93;;
44189;SDS011;29856;52.144;5.430;2023-08-31T13:32:08;3.40;;;0.82;;
44189;SDS011;29856;52.144;5.430;2023-08-31T13:34:34;3.25;;;0.90;;
44189;SDS011;29856;52.144;5.430;2023-08-31T13:37:00;4.07;;;1.30;;
44189;SDS011;29856;52.144;5.430;2023-08-31T13:39:26;3.28;;;0.88;;
44189;SDS011;29856;52.144;5.430;2023-08-31T13:41:52;5.10;;;0.77;;
44189;SDS011;29856;52.144;5.430;2023-08-31T13:44:18;4.43;;;1.15;;
44189;SDS011;29856;52.144;5.430;2023-08-31T13:46:44;2.97;;;1.20;;
44189;SDS011;29856;52.144;5.430;2023-08-31T13:49:10;3.45;;;1.00;;
44189;SDS011;29856;52.144;5.430;2023-08-31T13:51:35;2.85;;;1.10;;
44189;SDS011;29856;52.144;5.430;2023-08-31T13:54:02;3.75;;;1.00;;
44189;SDS011;29856;52.144;5.430;2023-08-31T13:56:27;3.80;;;1.50;;
44189;SDS011;29856;52.144;5.430;2023-08-31T13:58:53;3.08;;;0.80;;
44189;SDS011;29856;52.144;5.430;2023-08-31T14:01:19;4.22;;;0.90;;
44189;SDS011;29856;52.144;5.430;2023-08-31T14:03:44;3.15;;;1.05;;
44189;SDS011;29856;52.144;5.430;2023-08-31T14:06:10;6.18;;;1.25;;
44189;SDS011;29856;52.144;5.430;2023-08-31T14:08:35;6.10;;;2.00;;
44189;SDS011;29856;52.144;5.430;2023-08-31T14:11:01;5.70;;;1.15;;
44189;SDS011;29856;52.144;5.430;2023-08-31T14:13:26;1.98;;;0.90;;
44189;SDS011;29856;52.144;5.430;2023-08-31T14:15:52;3.13;;;1.10;;
44189;SDS011;29856;52.144;5.430;2023-08-31T14:18:17;4.88;;;1.00;;
44189;SDS011;29856;52.144;5.430;2023-08-31T14:20:43;1.95;;;0.80;;
44189;SDS011;29856;52.144;5.430;2023-08-31T14:23:08;2.55;;;1.17;;
44189;SDS011;29856;52.144;5.430;2023-08-31T14:25:37;2.47;;;0.85;;
44189;SDS011;29856;52.144;5.430;2023-08-31T14:28:03;1.80;;;0.80;;
44189;SDS011;29856;52.144;5.430;2023-08-31T14:30:29;2.55;;;0.90;;
44189;SDS011;29856;52.144;5.430;2023-08-31T14:32:55;3.50;;;1.08;;
44189;SDS011;29856;52.144;5.430;2023-08-31T14:35:20;2.75;;;1.00;;
44189;SDS011;29856;52.144;5.430;2023-08-31T14:37:46;6.20;;;1.20;;
44189;SDS011;29856;52.144;5.430;2023-08-31T14:40:11;1.73;;;0.90;;
44189;SDS011;29856;52.144;5.430;2023-08-31T14:42:37;2.88;;;1.15;;
44189;SDS011;29856;52.144;5.430;2023-08-31T14:45:02;3.20;;;0.98;;
44189;SDS011;29856;52.144;5.430;2023-08-31T14:47:28;1.92;;;1.10;;
44189;SDS011;29856;52.144;5.430;2023-08-31T14:49:56;2.58;;;1.30;;
44189;SDS011;29856;52.144;5.430;2023-08-31T14:52:22;3.08;;;1.25;;
44189;SDS011;29856;52.144;5.430;2023-08-31T14:54:48;4.25;;;1.00;;
44189;SDS011;29856;52.144;5.430;2023-08-31T14:57:13;3.17;;;0.90;;